KLBF/LBF METAR and TAF weather

Enter ICAO airport designator
Station Type Date Time Source
KLBF METAR 2022/09/26 07:53 UTC NOAA

KLBF 260753Z AUTO 33003KT 10SM CLR 06/03 A3024 RMK AO2 SLP229 T00560028


Station Type Date Time Source
KLBF Decoded METAR 2022/09/26 07:53 UTC NOAA

NORTH PLATTE REGIONAL AIRPORT , NE, United States (KLBF) 41-07N 100-40W 847M
Sep 26, 2022 - 03:53 AM EDT / 2022.09.26 0753 UTC
Wind: from the NNW (330 degrees) at 3 MPH (3 KT):0
Visibility: 10 mile(s):0
Sky conditions: clear
Temperature: 42.1 F (5.6 C)
Dew Point: 37.0 F (2.8 C)
Relative Humidity: 82%
Pressure (altimeter): 30.24 in. Hg (1024 hPa)
ob: KLBF 260753Z AUTO 33003KT 10SM CLR 06/03 A3024 RMK AO2 SLP229 T00560028
cycle: 8

Station Type Date Time Source
KLBF TAF 2022/09/26 06:22 UTC NOAA

TAF KLBF 260520Z 2606/2706 VRB03KT P6SM SKC
FM261700 19008KT P6SM FEW200
FM270000 12006KT P6SM SKC
FM270300 VRB04KT P6SM SKC

Example: see airport list